Terminal Aerodrome Forecast
Issued by NWS Charleston, WV

Current Version | Previous Version | Text Only | Print | Product List | Glossary Off
Versions: 1 2 3 4 5 6 7 8 9 10 11 12 13 14 15 16 17 18 19 20

000
FTUS41 KRLX 220800 AAA
TAFHTS
TAF AMD
KHTS 220803Z 2208/2306 00000KT 1SM BR SCT001
      TEMPO 2209/2211 1/2SM FG BKN001
     FM221200 VRB03KT 2SM BR SCT001
     FM221300 VRB03KT 6SM HZ SKC
     FM221600 18004KT P6SM SCT045
     FM222200 17004KT 6SM HZ SCT050=

USA.gov is the U.S. government's official web portal to all federal, state and local government web resources and services.